DLH1CN LDSP-EDDM
Flight info
| Callsign | DLH1CN |
|---|---|
| Flight time | 1h 2m |
| Altitude | 36000 |
| Route | ZDA DCT ROPUS DCT RASTA DCT REDBU Q112 NAPSA |
| Aircraft | A320/M-SDE2E3FGIJ1LORWXYZ/HB1 |
Departure
| Time | 2026-05-07 12:12 |
|---|---|
| Airport | Split Saint Jerome Airport (LDSP) |
Arrival
| Time | 2026-05-07 13:15 |
|---|---|
| Airport | Munich Airport (EDDM) |
| Time | Latitude | Longitude | Altitude | Speed | Heading |
|---|---|---|---|---|---|
| 2026-05-07 11:37 | 43.53660 | 16.29747 | 64 ft | 0 kts | 95° |
| 2026-05-07 12:03 | 43.53661 | 16.29734 | 65 ft | 3 kts | 99° |
| 2026-05-07 12:03 | 43.53666 | 16.29708 | 62 ft | 3 kts | 120° |
| 2026-05-07 12:03 | 43.53677 | 16.29688 | 61 ft | 3 kts | 153° |
| 2026-05-07 12:04 | 43.53693 | 16.29682 | 61 ft | 3 kts | 204° |
| 2026-05-07 12:04 | 43.53702 | 16.29690 | 60 ft | 1 kts | 233° |
| 2026-05-07 12:04 | 43.53704 | 16.29694 | 60 ft | 0 kts | 233° |
| 2026-05-07 12:09 | 43.53703 | 16.29691 | 68 ft | 3 kts | 233° |
| 2026-05-07 12:09 | 43.53681 | 16.29652 | 65 ft | 13 kts | 233° |
| 2026-05-07 12:09 | 43.53700 | 16.29520 | 72 ft | 11 kts | 273° |
| 2026-05-07 12:09 | 43.53684 | 16.29430 | 84 ft | 11 kts | 247° |
| 2026-05-07 12:10 | 43.53615 | 16.29291 | 83 ft | 17 kts | 232° |
| 2026-05-07 12:10 | 43.53532 | 16.29140 | 84 ft | 20 kts | 233° |
| 2026-05-07 12:10 | 43.53477 | 16.29041 | 82 ft | 18 kts | 231° |
| 2026-05-07 12:10 | 43.53400 | 16.28904 | 84 ft | 18 kts | 232° |
| 2026-05-07 12:11 | 43.53332 | 16.28780 | 85 ft | 15 kts | 232° |
| 2026-05-07 12:11 | 43.53270 | 16.28667 | 82 ft | 15 kts | 231° |
| 2026-05-07 12:11 | 43.53199 | 16.28587 | 78 ft | 10 kts | 264° |
| 2026-05-07 12:11 | 43.53228 | 16.28594 | 78 ft | 6 kts | 43° |
| 2026-05-07 12:12 | 43.53330 | 16.28776 | 84 ft | 57 kts | 52° |
| 2026-05-07 12:12 | 43.53711 | 16.29466 | 84 ft | 120 kts | 52° |
| 2026-05-07 12:12 | 43.54307 | 16.30560 | 257 ft | 155 kts | 55° |
| 2026-05-07 12:12 | 43.54959 | 16.31729 | 1035 ft | 153 kts | 55° |
| 2026-05-07 12:13 | 43.55550 | 16.32970 | 1650 ft | 161 kts | 75° |
| 2026-05-07 12:13 | 43.55647 | 16.34535 | 2098 ft | 169 kts | 108° |
| 2026-05-07 12:13 | 43.55107 | 16.35963 | 2690 ft | 172 kts | 136° |
| 2026-05-07 12:13 | 43.54069 | 16.36786 | 3293 ft | 177 kts | 167° |
| 2026-05-07 12:14 | 43.52835 | 16.37000 | 3936 ft | 181 kts | 167° |
| 2026-05-07 12:14 | 43.51671 | 16.37653 | 4698 ft | 182 kts | 155° |
| 2026-05-07 12:14 | 43.50534 | 16.38465 | 5374 ft | 188 kts | 154° |
| 2026-05-07 12:14 | 43.49358 | 16.39315 | 5528 ft | 192 kts | 154° |
| 2026-05-07 12:15 | 43.48141 | 16.40094 | 5528 ft | 202 kts | 169° |
| 2026-05-07 12:15 | 43.46680 | 16.39982 | 5879 ft | 225 kts | 202° |
| 2026-05-07 12:15 | 43.45386 | 16.38592 | 6320 ft | 251 kts | 226° |
| 2026-05-07 12:15 | 43.44192 | 16.36742 | 6992 ft | 263 kts | 228° |
| 2026-05-07 12:16 | 43.42995 | 16.34815 | 7844 ft | 268 kts | 229° |
| 2026-05-07 12:16 | 43.41783 | 16.32856 | 8769 ft | 270 kts | 230° |
| 2026-05-07 12:16 | 43.40553 | 16.30880 | 9668 ft | 274 kts | 230° |
| 2026-05-07 12:16 | 43.39293 | 16.28867 | 10353 ft | 285 kts | 230° |
| 2026-05-07 12:17 | 43.37944 | 16.26718 | 10649 ft | 308 kts | 230° |
| 2026-05-07 12:17 | 43.36819 | 16.24155 | 11219 ft | 318 kts | 250° |
| 2026-05-07 12:17 | 43.36456 | 16.21151 | 11992 ft | 324 kts | 270° |
| 2026-05-07 12:17 | 43.36957 | 16.18124 | 12849 ft | 330 kts | 291° |
| 2026-05-07 12:18 | 43.38302 | 16.15537 | 13639 ft | 341 kts | 314° |
| 2026-05-07 12:18 | 43.40153 | 16.13454 | 14340 ft | 346 kts | 318° |
| 2026-05-07 12:18 | 43.42052 | 16.11397 | 15027 ft | 350 kts | 318° |
| 2026-05-07 12:18 | 43.43976 | 16.09317 | 15721 ft | 354 kts | 318° |
| 2026-05-07 12:19 | 43.45923 | 16.07206 | 16454 ft | 359 kts | 318° |
| 2026-05-07 12:19 | 43.47888 | 16.05062 | 17198 ft | 362 kts | 317° |
| 2026-05-07 12:19 | 43.49871 | 16.02887 | 17911 ft | 367 kts | 317° |
| 2026-05-07 12:19 | 43.51874 | 16.00684 | 18588 ft | 371 kts | 317° |
| 2026-05-07 12:20 | 43.53899 | 15.98452 | 19186 ft | 374 kts | 317° |
| 2026-05-07 12:20 | 43.55939 | 15.96201 | 19774 ft | 377 kts | 316° |
| 2026-05-07 12:20 | 43.57994 | 15.93931 | 20351 ft | 380 kts | 316° |
| 2026-05-07 12:20 | 43.60067 | 15.91644 | 20904 ft | 383 kts | 316° |
| 2026-05-07 12:21 | 43.62155 | 15.89336 | 21448 ft | 386 kts | 315° |
| 2026-05-07 12:21 | 43.64259 | 15.87008 | 21970 ft | 389 kts | 315° |
| 2026-05-07 12:21 | 43.66381 | 15.84662 | 22497 ft | 392 kts | 315° |
| 2026-05-07 12:21 | 43.68517 | 15.82296 | 23015 ft | 395 kts | 315° |
| 2026-05-07 12:22 | 43.70669 | 15.79909 | 23522 ft | 398 kts | 315° |
| 2026-05-07 12:22 | 43.72839 | 15.77502 | 23953 ft | 401 kts | 315° |
| 2026-05-07 12:22 | 43.75022 | 15.75079 | 24369 ft | 404 kts | 315° |
| 2026-05-07 12:22 | 43.77219 | 15.72641 | 24815 ft | 406 kts | 314° |
| 2026-05-07 12:23 | 43.79425 | 15.70187 | 25233 ft | 408 kts | 314° |
| 2026-05-07 12:23 | 43.81643 | 15.67718 | 25654 ft | 410 kts | 314° |
| 2026-05-07 12:23 | 43.83873 | 15.65230 | 26069 ft | 413 kts | 314° |
| 2026-05-07 12:23 | 43.86112 | 15.62728 | 26504 ft | 415 kts | 314° |
| 2026-05-07 12:24 | 43.88366 | 15.60210 | 26898 ft | 417 kts | 314° |
| 2026-05-07 12:24 | 43.90631 | 15.57680 | 27297 ft | 419 kts | 314° |
| 2026-05-07 12:24 | 43.92878 | 15.55169 | 27687 ft | 421 kts | 314° |
| 2026-05-07 12:24 | 43.95196 | 15.52567 | 28071 ft | 425 kts | 314° |
| 2026-05-07 12:25 | 43.97468 | 15.50011 | 28448 ft | 427 kts | 314° |
| 2026-05-07 12:25 | 43.99814 | 15.47369 | 28826 ft | 430 kts | 314° |
| 2026-05-07 12:25 | 44.02111 | 15.44787 | 29195 ft | 432 kts | 314° |
| 2026-05-07 12:25 | 44.04453 | 15.42151 | 29569 ft | 434 kts | 314° |
| 2026-05-07 12:26 | 44.06806 | 15.39498 | 29938 ft | 437 kts | 314° |
| 2026-05-07 12:26 | 44.09277 | 15.36983 | 30251 ft | 445 kts | 321° |
| 2026-05-07 12:26 | 44.12059 | 15.34977 | 30558 ft | 456 kts | 330° |
| 2026-05-07 12:26 | 44.15014 | 15.33321 | 30830 ft | 459 kts | 331° |
| 2026-05-07 12:27 | 44.17984 | 15.31654 | 31108 ft | 462 kts | 331° |
| 2026-05-07 12:27 | 44.20967 | 15.29964 | 31374 ft | 464 kts | 331° |
| 2026-05-07 12:27 | 44.23999 | 15.28236 | 31679 ft | 465 kts | 331° |
| 2026-05-07 12:27 | 44.26988 | 15.26532 | 32114 ft | 463 kts | 331° |
| 2026-05-07 12:28 | 44.29964 | 15.24838 | 32548 ft | 461 kts | 331° |
| 2026-05-07 12:28 | 44.32888 | 15.23174 | 32963 ft | 459 kts | 330° |
| 2026-05-07 12:28 | 44.35874 | 15.21473 | 33432 ft | 457 kts | 330° |
| 2026-05-07 12:28 | 44.38772 | 15.19818 | 33866 ft | 455 kts | 330° |
| 2026-05-07 12:29 | 44.41698 | 15.18140 | 34232 ft | 454 kts | 330° |
| 2026-05-07 12:29 | 44.44615 | 15.16467 | 34572 ft | 452 kts | 330° |
| 2026-05-07 12:29 | 44.47525 | 15.14799 | 34927 ft | 451 kts | 330° |
| 2026-05-07 12:29 | 44.50421 | 15.13139 | 35032 ft | 449 kts | 330° |
| 2026-05-07 12:30 | 44.53308 | 15.11482 | 35029 ft | 448 kts | 330° |
| 2026-05-07 12:30 | 44.59106 | 15.08149 | 35041 ft | 447 kts | 330° |
| 2026-05-07 12:31 | 44.64862 | 15.04827 | 35030 ft | 447 kts | 330° |
| 2026-05-07 12:31 | 44.70624 | 15.01494 | 35026 ft | 448 kts | 330° |
| 2026-05-07 12:32 | 44.76383 | 14.98158 | 35034 ft | 448 kts | 330° |
| 2026-05-07 12:32 | 44.82150 | 14.94810 | 35027 ft | 449 kts | 330° |
| 2026-05-07 12:33 | 44.90829 | 14.89755 | 35042 ft | 450 kts | 330° |
| 2026-05-07 12:33 | 44.96614 | 14.86386 | 35024 ft | 450 kts | 330° |
| 2026-05-07 12:34 | 45.02401 | 14.83010 | 35037 ft | 451 kts | 330° |
| 2026-05-07 12:34 | 45.08202 | 14.79614 | 35034 ft | 452 kts | 330° |
| 2026-05-07 12:35 | 45.13969 | 14.76224 | 35031 ft | 452 kts | 330° |
| 2026-05-07 12:35 | 45.19772 | 14.72795 | 35030 ft | 452 kts | 329° |
| 2026-05-07 12:36 | 45.25580 | 14.69367 | 35028 ft | 453 kts | 330° |
| 2026-05-07 12:36 | 45.31402 | 14.65932 | 35029 ft | 453 kts | 330° |
| 2026-05-07 12:37 | 45.37234 | 14.62487 | 35031 ft | 454 kts | 330° |
| 2026-05-07 12:37 | 45.43057 | 14.59033 | 35035 ft | 453 kts | 329° |
| 2026-05-07 12:38 | 45.48887 | 14.55554 | 35028 ft | 455 kts | 329° |
| 2026-05-07 12:38 | 45.54733 | 14.52053 | 35007 ft | 455 kts | 330° |
| 2026-05-07 12:39 | 45.60580 | 14.48558 | 35018 ft | 456 kts | 330° |
| 2026-05-07 12:39 | 45.66431 | 14.45055 | 35012 ft | 456 kts | 330° |
| 2026-05-07 12:40 | 45.72285 | 14.41536 | 35013 ft | 457 kts | 330° |
| 2026-05-07 12:40 | 45.78139 | 14.38011 | 35004 ft | 456 kts | 330° |
| 2026-05-07 12:41 | 45.83983 | 14.34480 | 34998 ft | 456 kts | 330° |
| 2026-05-07 12:41 | 45.89830 | 14.30950 | 35006 ft | 455 kts | 330° |
| 2026-05-07 12:42 | 45.95658 | 14.27422 | 34996 ft | 454 kts | 330° |
| 2026-05-07 12:42 | 46.01469 | 14.23880 | 34993 ft | 453 kts | 330° |
| 2026-05-07 12:43 | 46.07278 | 14.20335 | 34990 ft | 453 kts | 330° |
| 2026-05-07 12:43 | 46.13129 | 14.16850 | 34987 ft | 457 kts | 332° |
| 2026-05-07 12:44 | 46.19073 | 14.13538 | 34982 ft | 458 kts | 332° |
| 2026-05-07 12:44 | 46.25035 | 14.10256 | 35013 ft | 459 kts | 332° |
| 2026-05-07 12:45 | 46.30984 | 14.06914 | 35003 ft | 458 kts | 332° |
| 2026-05-07 12:45 | 46.36930 | 14.03532 | 34976 ft | 460 kts | 332° |
| 2026-05-07 12:46 | 46.42890 | 14.00138 | 34976 ft | 460 kts | 332° |
| 2026-05-07 12:46 | 46.48818 | 13.96751 | 34969 ft | 460 kts | 332° |
| 2026-05-07 12:47 | 46.54800 | 13.93336 | 34974 ft | 460 kts | 332° |
| 2026-05-07 12:47 | 46.60771 | 13.89922 | 34964 ft | 462 kts | 332° |
| 2026-05-07 12:48 | 46.66747 | 13.86491 | 34956 ft | 461 kts | 332° |
| 2026-05-07 12:48 | 46.72671 | 13.83082 | 34953 ft | 461 kts | 332° |
| 2026-05-07 12:49 | 46.78635 | 13.79645 | 34953 ft | 461 kts | 332° |
| 2026-05-07 12:49 | 46.84608 | 13.76202 | 34955 ft | 462 kts | 332° |
| 2026-05-07 12:50 | 46.87592 | 13.74478 | 34843 ft | 460 kts | 332° |
| 2026-05-07 12:50 | 46.90556 | 13.72770 | 34604 ft | 456 kts | 332° |
| 2026-05-07 12:50 | 46.93500 | 13.71075 | 34378 ft | 454 kts | 332° |
| 2026-05-07 12:50 | 46.96427 | 13.69383 | 34149 ft | 452 kts | 332° |
| 2026-05-07 12:51 | 46.99343 | 13.67689 | 33927 ft | 450 kts | 332° |
| 2026-05-07 12:51 | 47.02246 | 13.65992 | 33650 ft | 449 kts | 332° |
| 2026-05-07 12:51 | 47.05140 | 13.64297 | 33404 ft | 446 kts | 333° |
| 2026-05-07 12:51 | 47.08016 | 13.62611 | 33140 ft | 444 kts | 333° |
| 2026-05-07 12:52 | 47.10876 | 13.60941 | 32884 ft | 441 kts | 333° |
| 2026-05-07 12:52 | 47.13719 | 13.59283 | 32610 ft | 439 kts | 333° |
| 2026-05-07 12:52 | 47.16549 | 13.57629 | 32349 ft | 436 kts | 333° |
| 2026-05-07 12:52 | 47.19359 | 13.55981 | 32102 ft | 434 kts | 333° |
| 2026-05-07 12:53 | 47.21250 | 13.54870 | 31935 ft | 433 kts | 332° |
| 2026-05-07 12:53 | 47.24047 | 13.53220 | 31680 ft | 433 kts | 333° |
| 2026-05-07 12:53 | 47.26843 | 13.51570 | 31438 ft | 432 kts | 333° |
| 2026-05-07 12:53 | 47.29631 | 13.49926 | 31178 ft | 430 kts | 333° |
| 2026-05-07 12:54 | 47.32399 | 13.48297 | 30712 ft | 427 kts | 333° |
| 2026-05-07 12:54 | 47.35147 | 13.46681 | 30171 ft | 424 kts | 333° |
| 2026-05-07 12:54 | 47.37880 | 13.45074 | 29610 ft | 421 kts | 333° |
| 2026-05-07 12:54 | 47.40587 | 13.43477 | 29096 ft | 417 kts | 333° |
| 2026-05-07 12:55 | 47.43263 | 13.41891 | 28642 ft | 412 kts | 334° |
| 2026-05-07 12:55 | 47.45912 | 13.40316 | 28141 ft | 409 kts | 334° |
| 2026-05-07 12:55 | 47.48511 | 13.38691 | 27685 ft | 401 kts | 328° |
| 2026-05-07 12:55 | 47.50854 | 13.36558 | 27238 ft | 391 kts | 317° |
| 2026-05-07 12:56 | 47.52914 | 13.34079 | 26811 ft | 384 kts | 315° |
| 2026-05-07 12:56 | 47.54969 | 13.31576 | 26388 ft | 381 kts | 316° |
| 2026-05-07 12:56 | 47.57011 | 13.29098 | 25950 ft | 378 kts | 316° |
| 2026-05-07 12:56 | 47.59039 | 13.26643 | 25521 ft | 375 kts | 316° |
| 2026-05-07 12:57 | 47.61052 | 13.24210 | 25069 ft | 372 kts | 316° |
| 2026-05-07 12:57 | 47.63052 | 13.21784 | 24624 ft | 370 kts | 316° |
| 2026-05-07 12:57 | 47.65035 | 13.19368 | 24166 ft | 368 kts | 316° |
| 2026-05-07 12:57 | 47.67004 | 13.16963 | 23696 ft | 366 kts | 317° |
| 2026-05-07 12:58 | 47.68968 | 13.14561 | 23182 ft | 365 kts | 317° |
| 2026-05-07 12:58 | 47.70920 | 13.12176 | 22723 ft | 362 kts | 317° |
| 2026-05-07 12:58 | 47.72855 | 13.09812 | 22242 ft | 359 kts | 317° |
| 2026-05-07 12:58 | 47.74774 | 13.07466 | 21775 ft | 356 kts | 317° |
| 2026-05-07 12:59 | 47.76679 | 13.05135 | 21324 ft | 353 kts | 317° |
| 2026-05-07 12:59 | 47.78568 | 13.02820 | 20870 ft | 351 kts | 317° |
| 2026-05-07 12:59 | 47.80446 | 13.00514 | 20410 ft | 349 kts | 317° |
| 2026-05-07 12:59 | 47.82310 | 12.98219 | 19952 ft | 347 kts | 317° |
| 2026-05-07 13:00 | 47.84164 | 12.95933 | 19512 ft | 345 kts | 317° |
| 2026-05-07 13:00 | 47.86007 | 12.93659 | 19069 ft | 344 kts | 317° |
| 2026-05-07 13:00 | 47.87844 | 12.91394 | 18613 ft | 342 kts | 317° |
| 2026-05-07 13:00 | 47.89675 | 12.89138 | 18174 ft | 341 kts | 317° |
| 2026-05-07 13:01 | 47.91615 | 12.86746 | 17686 ft | 338 kts | 317° |
| 2026-05-07 13:01 | 47.93306 | 12.84663 | 17281 ft | 336 kts | 317° |
| 2026-05-07 13:01 | 47.95073 | 12.82401 | 16831 ft | 333 kts | 315° |
| 2026-05-07 13:01 | 47.96812 | 12.80129 | 16399 ft | 332 kts | 315° |
| 2026-05-07 13:02 | 47.98557 | 12.77890 | 15978 ft | 330 kts | 316° |
| 2026-05-07 13:02 | 48.00294 | 12.75674 | 15572 ft | 328 kts | 316° |
| 2026-05-07 13:02 | 48.02040 | 12.73502 | 15171 ft | 326 kts | 316° |
| 2026-05-07 13:02 | 48.03784 | 12.71352 | 14772 ft | 324 kts | 316° |
| 2026-05-07 13:03 | 48.05516 | 12.69216 | 14376 ft | 322 kts | 317° |
| 2026-05-07 13:03 | 48.07233 | 12.67097 | 13996 ft | 321 kts | 316° |
| 2026-05-07 13:03 | 48.08949 | 12.64978 | 13586 ft | 319 kts | 317° |
| 2026-05-07 13:03 | 48.10657 | 12.62868 | 13163 ft | 317 kts | 316° |
| 2026-05-07 13:04 | 48.12353 | 12.60768 | 12734 ft | 315 kts | 316° |
| 2026-05-07 13:04 | 48.14038 | 12.58680 | 12316 ft | 314 kts | 317° |
| 2026-05-07 13:04 | 48.15711 | 12.56602 | 11866 ft | 312 kts | 317° |
| 2026-05-07 13:04 | 48.17384 | 12.54520 | 11395 ft | 313 kts | 317° |
| 2026-05-07 13:05 | 48.19051 | 12.52438 | 11011 ft | 310 kts | 316° |
| 2026-05-07 13:05 | 48.20694 | 12.50384 | 10634 ft | 304 kts | 316° |
| 2026-05-07 13:05 | 48.22292 | 12.48392 | 10265 ft | 294 kts | 316° |
| 2026-05-07 13:05 | 48.23844 | 12.46460 | 9900 ft | 286 kts | 316° |
| 2026-05-07 13:06 | 48.25360 | 12.44570 | 9499 ft | 282 kts | 317° |
| 2026-05-07 13:06 | 48.26864 | 12.42685 | 9107 ft | 281 kts | 316° |
| 2026-05-07 13:06 | 48.28108 | 12.40493 | 8711 ft | 274 kts | 298° |
| 2026-05-07 13:06 | 48.29006 | 12.37996 | 8374 ft | 270 kts | 295° |
| 2026-05-07 13:07 | 48.29852 | 12.35502 | 8041 ft | 266 kts | 295° |
| 2026-05-07 13:07 | 48.30681 | 12.33031 | 7710 ft | 263 kts | 295° |
| 2026-05-07 13:07 | 48.31498 | 12.30584 | 7384 ft | 261 kts | 295° |
| 2026-05-07 13:07 | 48.32307 | 12.28156 | 7058 ft | 259 kts | 295° |
| 2026-05-07 13:08 | 48.33108 | 12.25746 | 6734 ft | 257 kts | 295° |
| 2026-05-07 13:08 | 48.33903 | 12.23348 | 6420 ft | 256 kts | 295° |
| 2026-05-07 13:08 | 48.34689 | 12.20951 | 6083 ft | 256 kts | 295° |
| 2026-05-07 13:08 | 48.35469 | 12.18565 | 5747 ft | 252 kts | 295° |
| 2026-05-07 13:09 | 48.36229 | 12.16242 | 5557 ft | 243 kts | 294° |
| 2026-05-07 13:09 | 48.36821 | 12.13938 | 5379 ft | 231 kts | 279° |
| 2026-05-07 13:09 | 48.36811 | 12.11582 | 5202 ft | 222 kts | 264° |
| 2026-05-07 13:09 | 48.36642 | 12.09318 | 5069 ft | 214 kts | 264° |
| 2026-05-07 13:10 | 48.36482 | 12.07150 | 4962 ft | 205 kts | 264° |
| 2026-05-07 13:10 | 48.36328 | 12.05073 | 4738 ft | 195 kts | 264° |
| 2026-05-07 13:10 | 48.36180 | 12.03086 | 4518 ft | 188 kts | 265° |
| 2026-05-07 13:10 | 48.36038 | 12.01165 | 4249 ft | 183 kts | 264° |
| 2026-05-07 13:11 | 48.35898 | 11.99293 | 3999 ft | 178 kts | 264° |
| 2026-05-07 13:11 | 48.35762 | 11.97464 | 3763 ft | 175 kts | 265° |
| 2026-05-07 13:11 | 48.35628 | 11.95684 | 3537 ft | 167 kts | 265° |
| 2026-05-07 13:11 | 48.35499 | 11.93957 | 3316 ft | 164 kts | 265° |
| 2026-05-07 13:12 | 48.35375 | 11.92317 | 3096 ft | 152 kts | 265° |
| 2026-05-07 13:12 | 48.35263 | 11.90827 | 2906 ft | 138 kts | 265° |
| 2026-05-07 13:12 | 48.35157 | 11.89424 | 2729 ft | 133 kts | 266° |
| 2026-05-07 13:12 | 48.35053 | 11.88046 | 2544 ft | 133 kts | 265° |
| 2026-05-07 13:13 | 48.34949 | 11.86671 | 2355 ft | 132 kts | 265° |
| 2026-05-07 13:13 | 48.34846 | 11.85307 | 2168 ft | 130 kts | 265° |
| 2026-05-07 13:13 | 48.34742 | 11.83955 | 1961 ft | 131 kts | 265° |
| 2026-05-07 13:13 | 48.34642 | 11.82591 | 1740 ft | 131 kts | 266° |
| 2026-05-07 13:14 | 48.34541 | 11.81231 | 1591 ft | 130 kts | 265° |
| 2026-05-07 13:14 | 48.34436 | 11.79886 | 1477 ft | 127 kts | 266° |
| 2026-05-07 13:14 | 48.34349 | 11.78744 | 1482 ft | 86 kts | 264° |
| 2026-05-07 13:14 | 48.34317 | 11.78052 | 1485 ft | 56 kts | 278° |
| 2026-05-07 13:15 | 48.34410 | 11.77667 | 1473 ft | 26 kts | 294° |
| 2026-05-07 13:15 | 48.34499 | 11.77450 | 1481 ft | 24 kts | 335° |
| 2026-05-07 13:15 | 48.34627 | 11.77464 | 1474 ft | 16 kts | 62° |
| 2026-05-07 13:15 | 48.34642 | 11.77624 | 1485 ft | 15 kts | 83° |
| 2026-05-07 13:16 | 48.34654 | 11.77772 | 1475 ft | 14 kts | 83° |
| 2026-05-07 13:16 | 48.34664 | 11.77906 | 1485 ft | 12 kts | 83° |
| 2026-05-07 13:16 | 48.34673 | 11.78030 | 1485 ft | 11 kts | 83° |
| 2026-05-07 13:16 | 48.34683 | 11.78155 | 1473 ft | 15 kts | 83° |
| 2026-05-07 13:17 | 48.34697 | 11.78334 | 1477 ft | 18 kts | 83° |
| 2026-05-07 13:17 | 48.34711 | 11.78515 | 1479 ft | 17 kts | 83° |
| 2026-05-07 13:17 | 48.34724 | 11.78681 | 1475 ft | 15 kts | 83° |
| 2026-05-07 13:17 | 48.34735 | 11.78833 | 1479 ft | 14 kts | 83° |
| 2026-05-07 13:18 | 48.34746 | 11.78970 | 1485 ft | 13 kts | 83° |
| 2026-05-07 13:18 | 48.34756 | 11.79095 | 1481 ft | 12 kts | 83° |
| 2026-05-07 13:18 | 48.34765 | 11.79209 | 1485 ft | 10 kts | 83° |
| 2026-05-07 13:18 | 48.34775 | 11.79343 | 1478 ft | 17 kts | 83° |
| 2026-05-07 13:19 | 48.34787 | 11.79502 | 1481 ft | 12 kts | 82° |
| 2026-05-07 13:19 | 48.34842 | 11.79560 | 1485 ft | 10 kts | 360° |
| 2026-05-07 13:19 | 48.34910 | 11.79548 | 1485 ft | 0 kts | 353° |
| 2026-05-07 13:20 | 48.34920 | 11.79547 | 1485 ft | 6 kts | 353° |
| 2026-05-07 13:20 | 48.35005 | 11.79532 | 1482 ft | 16 kts | 353° |
| 2026-05-07 13:20 | 48.35119 | 11.79512 | 1485 ft | 18 kts | 353° |
| 2026-05-07 13:20 | 48.35248 | 11.79489 | 1477 ft | 19 kts | 353° |
| 2026-05-07 13:21 | 48.35388 | 11.79465 | 1485 ft | 21 kts | 353° |
| 2026-05-07 13:21 | 48.35539 | 11.79439 | 1482 ft | 23 kts | 353° |
| 2026-05-07 13:21 | 48.35699 | 11.79410 | 1479 ft | 24 kts | 353° |
| 2026-05-07 13:21 | 48.35788 | 11.79462 | 1482 ft | 15 kts | 76° |
| 2026-05-07 13:22 | 48.35800 | 11.79609 | 1481 ft | 14 kts | 83° |
| 2026-05-07 13:22 | 48.35810 | 11.79746 | 1485 ft | 12 kts | 83° |
| 2026-05-07 13:22 | 48.35819 | 11.79869 | 1479 ft | 11 kts | 83° |
| 2026-05-07 13:22 | 48.35828 | 11.79980 | 1485 ft | 10 kts | 84° |
| 2026-05-07 13:23 | 48.35801 | 11.80063 | 1481 ft | 9 kts | 153° |
| 2026-05-07 13:23 | 48.35745 | 11.80073 | 1485 ft | 8 kts | 173° |
| 2026-05-07 13:23 | 48.35714 | 11.80040 | 1479 ft | 5 kts | 263° |
| 2026-05-07 13:23 | 48.35711 | 11.79975 | 1485 ft | 7 kts | 263° |
| 2026-05-07 13:24 | 48.35710 | 11.79961 | 1485 ft | 0 kts | 263° |